Thunderstorms From: 15-12-2017 06:00 Until: 16-12-2017 06:00 warning for: Thunderstorms Level: Yellow info button

Although rather usual in this region, locally or potentially dangerous phenomena are expected. (such as local winds, summer thunderstorms, rising streams or high waves) Be aware and pay attention to the latest weather updates, especially if you carry out activities exposed to weather or close to a stream or shoreline. 


Meteo18 Weather Cam more information Meteo18 Weather Cam


warning for Thunderstorms more information blitzortung!


Rain radar more information rain snow radar


Visit our other weather sites:

Template documentation
and downloads

And another site



Weather Underground History page Text

Daily Summary for May 25, 2017 Units:  English    Metric   Both
« Previous Day
Next Day »
Daily Weekly Monthly Yearly Custom
  High: Low: Average:
Temperature: 78.4 °F 56.5 °F 68 °F
Dew Point: 61.3 °F 53.8 °F 57.2 °F
Humidity: 91 % 49 % 70 %
Wind Speed: 18 mph 0 mph 5.9 mph
Wind Gust: 21 mph - -
Wind:- - ENE
Pressure: 30.2 in 30.1 in -
Precipitation: 0 in    
Historical Graphs
 
 
Tabular Data for May 25, 2017
Time Temperature Dew Point Pressure Wind Wind Speed Wind Gust Humidity Rainfall Rate (Hourly)
00:02 62.1 °F 57.6 °F 30.2 in Calm   8 mph 85 % 0 in
00:12 62.1 °F 57.6 °F 30.2 in NE 3 mph 7 mph 85 % 0 in
00:17 62.2 °F 57.7 °F 30.2 in Calm   7 mph 85 % 0 in
00:22 62.2 °F 57.7 °F 30.2 in NE 3 mph 7 mph 85 % 0 in
00:32 62.2 °F 57.7 °F 30.2 in NW 6 mph 8 mph 85 % 0 in
00:37 62.2 °F 57.7 °F 30.2 in NNW 2 mph 8 mph 85 % 0 in
00:42 62.1 °F 57.6 °F 30.2 in North 1 mph 8 mph 85 % 0 in
00:47 62.1 °F 57.6 °F 30.2 in NNW 3 mph 8 mph 85 % 0 in
00:52 61.9 °F 57.4 °F 30.2 in NE 1 mph 8 mph 85 % 0 in
00:57 61.7 °F 57.4 °F 30.2 in NNW 2 mph 8 mph 86 % 0 in
01:02 61.5 °F 57 °F 30.2 in NNE 2 mph 8 mph 85 % 0 in
01:12 61.3 °F 57.2 °F 30.2 in NNE 4 mph 8 mph 86 % 0 in
01:17 61.5 °F 57 °F 30.2 in NE 2 mph 7 mph 85 % 0 in
01:22 61.7 °F 57.2 °F 30.2 in North 4 mph 7 mph 85 % 0 in
01:27 61.9 °F 57.4 °F 30.2 in NNE 5 mph 11 mph 85 % 0 in
01:32 62.1 °F 57.2 °F 30.2 in NE 7 mph 11 mph 84 % 0 in
01:37 62.2 °F 57 °F 30.2 in NNE 5 mph 11 mph 83 % 0 in
01:42 62.2 °F 57 °F 30.2 in NE 5 mph 11 mph 83 % 0 in
01:47 62.2 °F 57 °F 30.2 in NE 7 mph 9 mph 83 % 0 in
01:52 62.2 °F 56.7 °F 30.2 in NE 6 mph 9 mph 82 % 0 in
02:02 61.9 °F 56.7 °F 30.2 in NE 3 mph 11 mph 83 % 0 in
02:12 61.3 °F 56.1 °F 30.2 in NE 5 mph 8 mph 83 % 0 in
02:17 61.3 °F 56.1 °F 30.2 in NE 5 mph 7 mph 83 % 0 in
02:22 61.3 °F 56.1 °F 30.2 in ENE 4 mph 7 mph 83 % 0 in
02:32 61 °F 55.8 °F 30.2 in NE 3 mph 8 mph 83 % 0 in
02:37 60.6 °F 55.8 °F 30.2 in NE 4 mph 7 mph 84 % 0 in
02:42 60.4 °F 55.9 °F 30.2 in NE 3 mph 7 mph 85 % 0 in
02:47 60.3 °F 55.8 °F 30.2 in NE 2 mph 6 mph 85 % 0 in
02:52 60.3 °F 55.8 °F 30.2 in NE 2 mph 6 mph 85 % 0 in
02:57 60.3 °F 55.8 °F 30.2 in NNE 3 mph 5 mph 85 % 0 in
03:02 60.1 °F 55.6 °F 30.2 in NE 4 mph 5 mph 85 % 0 in
03:12 59.7 °F 55.2 °F 30.2 in NNE 2 mph 5 mph 85 % 0 in
03:17 59.5 °F 55 °F 30.2 in NNE 2 mph 5 mph 85 % 0 in
03:22 59.2 °F 55 °F 30.2 in North 1 mph 5 mph 86 % 0 in
03:32 58.6 °F 54.9 °F 30.2 in North 3 mph 3 mph 87 % 0 in
03:37 58.6 °F 54.9 °F 30.2 in NNE 3 mph 5 mph 87 % 0 in
03:42 58.5 °F 54.7 °F 30.2 in NNE 3 mph 5 mph 87 % 0 in
03:47 58.3 °F 54.5 °F 30.2 in North 2 mph 6 mph 87 % 0 in
03:52 58.3 °F 54.7 °F 30.2 in NE 3 mph 6 mph 88 % 0 in
03:57 58.1 °F 54.5 °F 30.2 in North 2 mph 5 mph 88 % 0 in
04:02 57.9 °F 54.3 °F 30.2 in NNE 3 mph 5 mph 88 % 0 in
04:12 57.9 °F 54.3 °F 30.2 in NE 3 mph 5 mph 88 % 0 in
04:17 57.9 °F 54.3 °F 30.2 in NNE 4 mph 8 mph 88 % 0 in
04:22 57.7 °F 54.5 °F 30.2 in NE 5 mph 8 mph 89 % 0 in
04:27 57.7 °F 54.1 °F 30.2 in NNW 5 mph 6 mph 88 % 0 in
04:32 57.7 °F 54.1 °F 30.2 in NNE 2 mph 6 mph 88 % 0 in
04:37 57.6 °F 54 °F 30.2 in North 2 mph 7 mph 88 % 0 in
04:42 57.6 °F 54.3 °F 30.2 in NNE 5 mph 7 mph 89 % 0 in
04:47 57.6 °F 54.3 °F 30.2 in NNE 2 mph 7 mph 89 % 0 in
04:52 57.4 °F 54.1 °F 30.2 in Calm   7 mph 89 % 0 in
05:02 57.4 °F 54.1 °F 30.2 in North 3 mph 6 mph 89 % 0 in
05:12 57 °F 54.1 °F 30.2 in NNE 3 mph 7 mph 90 % 0 in
05:17 57.4 °F 54.5 °F 30.2 in NNE 2 mph 7 mph 90 % 0 in
05:22 57.4 °F 54.1 °F 30.2 in NNE 3 mph 7 mph 89 % 0 in
05:32 57.4 °F 54.1 °F 30.2 in Calm   5 mph 89 % 0 in
05:42 57 °F 53.8 °F 30.2 in NNE 1 mph 4 mph 89 % 0 in
05:47 56.8 °F 54 °F 30.2 in NNE 1 mph 4 mph 90 % 0 in
05:52 56.8 °F 54 °F 30.2 in North 1 mph 4 mph 90 % 0 in
06:02 56.7 °F 53.8 °F 30.2 in NE 1 mph 3 mph 90 % 0 in
06:12 56.5 °F 54 °F 30.2 in NE 4 mph 4 mph 91 % 0 in
06:17 56.7 °F 54.1 °F 30.2 in NNE 3 mph 4 mph 91 % 0 in
06:22 56.7 °F 53.8 °F 30.2 in NNE 5 mph 5 mph 90 % 0 in
06:32 57 °F 54.1 °F 30.2 in NNE 4 mph 6 mph 90 % 0 in
06:37 57.6 °F 54.7 °F 30.2 in NNE 5 mph 6 mph 90 % 0 in
06:42 58.3 °F 55 °F 30.2 in North 4 mph 6 mph 89 % 0 in
06:52 58.8 °F 55.2 °F 30.2 in NE 4 mph 6 mph 88 % 0 in
06:57 59.2 °F 55.6 °F 30.2 in NE 5 mph 10 mph 88 % 0 in
07:02 59.5 °F 55.6 °F 30.2 in NE 6 mph 10 mph 87 % 0 in
07:07 59.7 °F 55.8 °F 30.2 in NE 4 mph 10 mph 87 % 0 in
07:12 59.9 °F 55.9 °F 30.2 in NE 7 mph 10 mph 87 % 0 in
07:17 60.1 °F 56.1 °F 30.2 in NNE 6 mph 10 mph 87 % 0 in
07:22 60.3 °F 56.1 °F 30.2 in NNE 7 mph 11 mph 86 % 0 in
07:32 60.6 °F 56.5 °F 30.2 in NE 5 mph 11 mph 86 % 0 in
07:37 61 °F 56.5 °F 30.2 in North 5 mph 11 mph 85 % 0 in
07:42 61.2 °F 56.7 °F 30.2 in NNE 7 mph 13 mph 85 % 0 in
07:52 61.3 °F 56.8 °F 30.2 in NE 7 mph 10 mph 85 % 0 in
07:57 61.3 °F 56.5 °F 30.2 in NE 7 mph 10 mph 84 % 0 in
08:02 61.3 °F 56.5 °F 30.2 in ENE 6 mph 11 mph 84 % 0 in
08:12 61.5 °F 56.7 °F 30.2 in ENE 6 mph 11 mph 84 % 0 in
08:17 61.9 °F 56.7 °F 30.2 in NE 2 mph 11 mph 83 % 0 in
08:22 62.1 °F 56.8 °F 30.2 in NE 4 mph 10 mph 83 % 0 in
08:32 62.6 °F 57 °F 30.2 in East 6 mph 10 mph 82 % 0 in
08:37 62.8 °F 56.8 °F 30.2 in NE 6 mph 10 mph 81 % 0 in
08:42 63 °F 57.4 °F 30.2 in ENE 7 mph 11 mph 82 % 0 in
08:52 63.7 °F 57.7 °F 30.2 in ENE 5 mph 11 mph 81 % 0 in
08:57 63.9 °F 57.6 °F 30.2 in ENE 2 mph 11 mph 80 % 0 in
09:02 64.2 °F 57.9 °F 30.2 in ENE 4 mph 11 mph 80 % 0 in
09:07 64.8 °F 58.1 °F 30.2 in ENE 4 mph 11 mph 79 % 0 in
09:12 64.9 °F 57.9 °F 30.2 in NNE 4 mph 9 mph 78 % 0 in
09:17 65.1 °F 58.1 °F 30.2 in ENE 3 mph 9 mph 78 % 0 in
09:22 65.5 °F 58.5 °F 30.2 in NNE 5 mph 10 mph 78 % 0 in
09:32 65.8 °F 58.1 °F 30.2 in NE 8 mph 12 mph 76 % 0 in
09:42 66.6 °F 58.5 °F 30.2 in ENE 6 mph 12 mph 75 % 0 in
09:47 66.9 °F 58.8 °F 30.2 in NE 5 mph 12 mph 75 % 0 in
09:52 67.3 °F 58.6 °F 30.2 in NE 5 mph 12 mph 74 % 0 in
10:02 67.8 °F 58.5 °F 30.2 in ENE 5 mph 11 mph 72 % 0 in
10:12 68.4 °F 59 °F 30.2 in NE 3 mph 12 mph 72 % 0 in
10:17 68.4 °F 58.6 °F 30.2 in NNE 5 mph 12 mph 71 % 0 in
10:22 68.7 °F 58.5 °F 30.2 in NE 3 mph 12 mph 70 % 0 in
10:27 68.7 °F 59 °F 30.2 in NNE 10 mph 12 mph 71 % 0 in
10:32 69.1 °F 59.4 °F 30.2 in NE 9 mph 12 mph 71 % 0 in
10:42 69.4 °F 58.8 °F 30.2 in East 7 mph 14 mph 69 % 0 in
10:52 70 °F 59 °F 30.2 in NE 6 mph 12 mph 68 % 0 in
10:57 70 °F 58.5 °F 30.2 in East 5 mph 12 mph 67 % 0 in
11:02 70.5 °F 59.9 °F 30.2 in NE 7 mph 14 mph 69 % 0 in
11:12 71.1 °F 58.3 °F 30.2 in ENE 7 mph 14 mph 64 % 0 in
11:17 71.2 °F 57.9 °F 30.2 in NNW 8 mph 14 mph 63 % 0 in
11:22 71.2 °F 57 °F 30.2 in ENE 12 mph 14 mph 61 % 0 in
11:32 71.8 °F 56.7 °F 30.2 in NE 14 mph 18 mph 59 % 0 in
11:42 72.3 °F 56.3 °F 30.2 in ENE 10 mph 18 mph 57 % 0 in
11:47 72.3 °F 55.8 °F 30.2 in ENE 9 mph 18 mph 56 % 0 in
11:52 72.5 °F 57.4 °F 30.2 in NNE 12 mph 19 mph 59 % 0 in
11:57 72.7 °F 56.1 °F 30.2 in ENE 11 mph 19 mph 56 % 0 in
12:02 72.7 °F 57.6 °F 30.2 in ENE 9 mph 19 mph 59 % 0 in
12:12 72.9 °F 58.1 °F 30.2 in NE 6 mph 18 mph 60 % 0 in
12:17 73.2 °F 58.5 °F 30.2 in NE 10 mph 18 mph 60 % 0 in
12:22 73.4 °F 58.6 °F 30.2 in NNE 14 mph 17 mph 60 % 0 in
12:32 73.2 °F 58.5 °F 30.2 in NE 8 mph 17 mph 60 % 0 in
12:42 73.6 °F 57.9 °F 30.2 in NE 11 mph 18 mph 58 % 0 in
12:47 73.6 °F 57.4 °F 30.2 in ENE 15 mph 18 mph 57 % 0 in
12:52 73.9 °F 58.6 °F 30.2 in NE 5 mph 19 mph 59 % 0 in
13:02 73.9 °F 57.2 °F 30.2 in NE 10 mph 19 mph 56 % 0 in
13:07 73.9 °F 57.7 °F 30.2 in East 8 mph 15 mph 57 % 0 in
13:17 74.5 °F 57.7 °F 30.2 in ENE 14 mph 15 mph 56 % 0 in
13:22 74.8 °F 58.6 °F 30.2 in ENE 6 mph 17 mph 57 % 0 in
13:32 74.7 °F 57.9 °F 30.2 in NE 11 mph 17 mph 56 % 0 in
13:37 74.7 °F 57.4 °F 30.2 in NNE 8 mph 17 mph 55 % 0 in
13:42 75 °F 58.3 °F 30.2 in NE 8 mph 17 mph 56 % 0 in
13:52 74.8 °F 59.5 °F 30.2 in NNE 9 mph 16 mph 59 % 0 in
13:57 75 °F 58.3 °F 30.1 in NNE 9 mph 19 mph 56 % 0 in
14:02 75 °F 58.3 °F 30.1 in East 12 mph 19 mph 56 % 0 in
14:12 75.9 °F 57.6 °F 30.1 in NNE 10 mph 19 mph 53 % 0 in
14:17 75.7 °F 56.8 °F 30.1 in NNE 10 mph 17 mph 52 % 0 in
14:22 76.1 °F 58.3 °F 30.1 in NNE 6 mph 17 mph 54 % 0 in
14:32 76.5 °F 58.6 °F 30.1 in NE 9 mph 17 mph 54 % 0 in
14:37 76.5 °F 59.2 °F 30.1 in NE 14 mph 17 mph 55 % 0 in
14:42 76.3 °F 57.4 °F 30.1 in ESE 8 mph 17 mph 52 % 0 in
14:52 76.6 °F 58.3 °F 30.1 in NNE 18 mph 18 mph 53 % 0 in
14:57 76.5 °F 57.6 °F 30.1 in NNE 6 mph 21 mph 52 % 0 in
15:02 76.5 °F 57.6 °F 30.1 in ENE 6 mph 21 mph 52 % 0 in
15:12 76.6 °F 58.3 °F 30.1 in NE 7 mph 21 mph 53 % 0 in
15:17 76.6 °F 57.7 °F 30.1 in NE 9 mph 18 mph 52 % 0 in
15:22 76.8 °F 57.9 °F 30.1 in ENE 10 mph 18 mph 52 % 0 in
15:27 77.2 °F 57.7 °F 30.1 in NNE 11 mph 19 mph 51 % 0 in
15:32 77.2 °F 58.3 °F 30.1 in East 7 mph 19 mph 52 % 0 in
15:37 77.4 °F 57.7 °F 30.1 in NE 17 mph 19 mph 51 % 0 in
15:42 77.5 °F 57.9 °F 30.1 in NE 5 mph 19 mph 51 % 0 in
15:52 78.1 °F 58.5 °F 30.1 in ENE 7 mph 19 mph 51 % 0 in
15:57 78.3 °F 60.3 °F 30.1 in ENE 4 mph 18 mph 54 % 0 in
16:02 78.3 °F 57.6 °F 30.1 in ENE 11 mph 18 mph 49 % 0 in
16:12 78.3 °F 59.7 °F 30.1 in NE 10 mph 18 mph 53 % 0 in
16:17 78.4 °F 58.8 °F 30.1 in NE 9 mph 16 mph 51 % 0 in
16:22 78.4 °F 60.4 °F 30.1 in NNE 8 mph 16 mph 54 % 0 in
16:32 77.7 °F 60.8 °F 30.1 in North 4 mph 16 mph 56 % 0 in
16:37 77.5 °F 59.5 °F 30.1 in NNE 9 mph 18 mph 54 % 0 in
16:42 77.7 °F 60.3 °F 30.1 in ENE 7 mph 18 mph 55 % 0 in
16:47 78.1 °F 60.6 °F 30.1 in NE 10 mph 17 mph 55 % 0 in
16:52 77.7 °F 60.3 °F 30.1 in NE 6 mph 17 mph 55 % 0 in
16:57 77.7 °F 60.3 °F 30.1 in NE 13 mph 19 mph 55 % 0 in
17:02 77.7 °F 61.3 °F 30.1 in NNE 12 mph 19 mph 57 % 0 in
17:12 77.7 °F 59.7 °F 30.1 in NE 15 mph 18 mph 54 % 0 in
17:17 78.1 °F 60.1 °F 30.1 in NE 9 mph 18 mph 54 % 0 in
17:22 78.1 °F 60.6 °F 30.1 in NNE 3 mph 17 mph 55 % 0 in
17:27 78.1 °F 60.1 °F 30.1 in NNE 10 mph 17 mph 54 % 0 in
17:32 78.1 °F 60.1 °F 30.1 in ENE 6 mph 17 mph 54 % 0 in
17:37 78.1 °F 60.1 °F 30.1 in NE 6 mph 16 mph 54 % 0 in
17:42 78.3 °F 60.8 °F 30.1 in NE 12 mph 16 mph 55 % 0 in
17:47 78.1 °F 60.6 °F 30.1 in NNE 9 mph 16 mph 55 % 0 in
17:52 78.1 °F 60.1 °F 30.1 in East 6 mph 16 mph 54 % 0 in
17:57 78.3 °F 60.8 °F 30.1 in North 9 mph 16 mph 55 % 0 in
18:02 78.1 °F 60.6 °F 30.1 in NNE 8 mph 16 mph 55 % 0 in
18:12 77.7 °F 60.3 °F 30.1 in NNE 8 mph 15 mph 55 % 0 in
18:17 77.7 °F 60.8 °F 30.1 in NE 7 mph 18 mph 56 % 0 in
18:22 77.9 °F 61 °F 30.1 in East 10 mph 17 mph 56 % 0 in
18:32 77.7 °F 60.8 °F 30.1 in NE 7 mph 17 mph 56 % 0 in
18:42 77.7 °F 60.8 °F 30.1 in East 6 mph 15 mph 56 % 0 in
18:47 77.9 °F 60.4 °F 30.1 in ENE 6 mph 15 mph 55 % 0 in
19:02 77.5 °F 60.1 °F 30.1 in NNE 8 mph 16 mph 55 % 0 in
19:12 77.4 °F 61 °F 30.1 in NNE 7 mph 15 mph 57 % 0 in
19:17 77.2 °F 60.8 °F 30.1 in NE 8 mph 15 mph 57 % 0 in
19:22 77 °F 60.6 °F 30.1 in NE 9 mph 15 mph 57 % 0 in
19:32 76.6 °F 60.3 °F 30.1 in NE 5 mph 15 mph 57 % 0 in
19:42 76.5 °F 59.2 °F 30.1 in NNE 12 mph 15 mph 55 % 0 in
19:47 76.5 °F 59.5 °F 30.1 in NNW 9 mph 18 mph 56 % 0 in
19:52 76.3 °F 59 °F 30.1 in NE 8 mph 18 mph 55 % 0 in
20:02 75.9 °F 59.2 °F 30.1 in NNE 7 mph 16 mph 56 % 0 in
20:12 75.4 °F 58.6 °F 30.1 in NE 6 mph 16 mph 56 % 0 in
20:17 75.2 °F 58.5 °F 30.1 in NE 7 mph 15 mph 56 % 0 in
20:22 75 °F 58.8 °F 30.1 in NNE 7 mph 15 mph 57 % 0 in
20:32 74.7 °F 57.9 °F 30.1 in NNE 6 mph 15 mph 56 % 0 in
20:42 74.1 °F 56.8 °F 30.1 in NE 8 mph 15 mph 55 % 0 in
20:47 73.9 °F 57.2 °F 30.1 in NNE 11 mph 14 mph 56 % 0 in
20:52 73.8 °F 57 °F 30.1 in NNE 6 mph 14 mph 56 % 0 in
20:57 73.4 °F 56.7 °F 30.1 in NNE 8 mph 12 mph 56 % 0 in
21:02 73 °F 56.5 °F 30.1 in North 13 mph 13 mph 56 % 0 in
21:07 72.9 °F 56.7 °F 30.1 in ENE 3 mph 11 mph 57 % 0 in
21:12 72.3 °F 56.3 °F 30.1 in NNE 2 mph 11 mph 57 % 0 in
21:17 72 °F 55.9 °F 30.1 in North 9 mph 13 mph 57 % 0 in
21:22 71.6 °F 56.1 °F 30.1 in NNE 4 mph 13 mph 58 % 0 in
21:32 70.5 °F 55.6 °F 30.1 in NE 5 mph 10 mph 59 % 0 in
21:42 70.2 °F 55.6 °F 30.1 in North 1 mph 8 mph 60 % 0 in
21:47 69.8 °F 55.8 °F 30.1 in NNE 1 mph 6 mph 61 % 0 in
21:52 69.3 °F 56.1 °F 30.1 in NNE 3 mph 6 mph 63 % 0 in
21:57 68.5 °F 55.9 °F 30.1 in NNE 5 mph 8 mph 64 % 0 in
22:02 68.2 °F 55.9 °F 30.1 in NNE 4 mph 8 mph 65 % 0 in
22:12 67.6 °F 55.4 °F 30.1 in NNE 5 mph 8 mph 65 % 0 in
22:17 67.3 °F 55 °F 30.1 in NE 8 mph 9 mph 65 % 0 in
22:22 67.3 °F 55 °F 30.1 in NE 4 mph 9 mph 65 % 0 in
22:32 67.3 °F 55 °F 30.1 in NNE 3 mph 11 mph 65 % 0 in
22:37 66.9 °F 54.9 °F 30.1 in NE 3 mph 9 mph 65 % 0 in
22:42 66.6 °F 54.9 °F 30.1 in NNE 4 mph 9 mph 66 % 0 in
22:47 66.6 °F 54.9 °F 30.1 in NE 5 mph 9 mph 66 % 0 in
22:52 66.4 °F 54.7 °F 30.1 in NNE 4 mph 8 mph 66 % 0 in
22:57 66.6 °F 54.9 °F 30.1 in NE 4 mph 8 mph 66 % 0 in
23:02 66.2 °F 54.9 °F 30.1 in NE 4 mph 8 mph 67 % 0 in
23:12 65.7 °F 54.9 °F 30.1 in NNE 4 mph 8 mph 68 % 0 in
23:22 64.9 °F 54.5 °F 30.1 in NNE 2 mph 8 mph 69 % 0 in
23:27 64.6 °F 54.5 °F 30.1 in NNW 1 mph 7 mph 70 % 0 in
23:32 64.2 °F 54.7 °F 30.1 in NNE 1 mph 7 mph 71 % 0 in
23:37 64 °F 54.5 °F 30.1 in NE 1 mph 4 mph 71 % 0 in
23:42 63.9 °F 54.3 °F 30.1 in Calm   4 mph 71 % 0 in
23:47 64 °F 54.5 °F 30.1 in NE 2 mph 4 mph 71 % 0 in
23:52 64.4 °F 54.3 °F 30.1 in NE 4 mph 4 mph 70 % 0 in
Meteo18
Compliments of Weather Underground - 4 mb

Script developed by  Jim McMurry - jmcmurry@mwt.net Adapted for the template by  Wim van der Kuil - Leuven-Template.eu

You find our weather info also at:

European Weather Network

Weather Underground

Equipment we use:

Weather-station
Davis Vue

Weather-program
Meteohub

Weather-server
Raspberry PI 2 B+

Provider
1 and 1

Davis Vue

Meteohub

Raspberry PI 2 B+

1 and 1